sensor_id;sensor_type;location;lat;lon;timestamp;pressure;altitude;pressure_sealevel;temperature;humidity
34297;BME280;20564;42.902;25.336;2023-02-18T00:02:08;97882.25;;;-0.98;100.00
34297;BME280;20564;42.902;25.336;2023-02-18T00:04:38;97894.25;;;-0.97;100.00
34297;BME280;20564;42.902;25.336;2023-02-18T00:07:05;97883.94;;;-0.97;100.00
34297;BME280;20564;42.902;25.336;2023-02-18T00:09:33;97881.53;;;-1.03;100.00
34297;BME280;20564;42.902;25.336;2023-02-18T00:12:03;97869.63;;;-1.07;100.00
34297;BME280;20564;42.902;25.336;2023-02-18T00:14:30;97867.03;;;-1.07;100.00
34297;BME280;20564;42.902;25.336;2023-02-18T00:16:57;97867.13;;;-1.10;100.00
34297;BME280;20564;42.902;25.336;2023-02-18T00:19:24;97858.63;;;-1.12;100.00
34297;BME280;20564;42.902;25.336;2023-02-18T00:21:52;97863.63;;;-1.08;100.00
34297;BME280;20564;42.902;25.336;2023-02-18T00:24:19;97868.84;;;-1.09;100.00
34297;BME280;20564;42.902;25.336;2023-02-18T00:26:50;97864.63;;;-1.12;100.00
34297;BME280;20564;42.902;25.336;2023-02-18T00:29:18;97868.09;;;-1.13;100.00
34297;BME280;20564;42.902;25.336;2023-02-18T00:31:45;97843.56;;;-1.26;100.00
34297;BME280;20564;42.902;25.336;2023-02-18T00:34:13;97853.66;;;-1.18;100.00
34297;BME280;20564;42.902;25.336;2023-02-18T00:36:41;97855.22;;;-1.14;100.00
34297;BME280;20564;42.902;25.336;2023-02-18T00:39:10;97843.41;;;-1.22;100.00
34297;BME280;20564;42.902;25.336;2023-02-18T00:41:39;97849.41;;;-1.21;100.00
34297;BME280;20564;42.902;25.336;2023-02-18T00:44:08;97850.22;;;-1.19;100.00
34297;BME280;20564;42.902;25.336;2023-02-18T00:46:36;97837.56;;;-1.27;100.00
34297;BME280;20564;42.902;25.336;2023-02-18T00:49:04;97842.03;;;-1.32;100.00
34297;BME280;20564;42.902;25.336;2023-02-18T00:51:32;97834.28;;;-1.32;100.00
34297;BME280;20564;42.902;25.336;2023-02-18T00:54:00;97834.06;;;-1.24;100.00
34297;BME280;20564;42.902;25.336;2023-02-18T00:56:28;97831.59;;;-1.29;100.00
34297;BME280;20564;42.902;25.336;2023-02-18T00:58:59;97824.75;;;-1.30;100.00
34297;BME280;20564;42.902;25.336;2023-02-18T01:01:27;97819.41;;;-1.24;100.00
34297;BME280;20564;42.902;25.336;2023-02-18T01:03:55;97820.03;;;-1.17;100.00
34297;BME280;20564;42.902;25.336;2023-02-18T01:06:24;97815.91;;;-1.23;100.00
34297;BME280;20564;42.902;25.336;2023-02-18T01:08:51;97810.84;;;-1.26;100.00
34297;BME280;20564;42.902;25.336;2023-02-18T01:11:19;97805.69;;;-1.26;100.00
34297;BME280;20564;42.902;25.336;2023-02-18T01:13:50;97807.34;;;-1.25;100.00
34297;BME280;20564;42.902;25.336;2023-02-18T01:16:18;97802.41;;;-1.31;100.00
34297;BME280;20564;42.902;25.336;2023-02-18T01:18:46;97796.44;;;-1.33;100.00
34297;BME280;20564;42.902;25.336;2023-02-18T01:21:14;97797.38;;;-1.35;100.00
34297;BME280;20564;42.902;25.336;2023-02-18T01:23:41;97806.09;;;-1.38;100.00
34297;BME280;20564;42.902;25.336;2023-02-18T01:26:12;97799.34;;;-1.42;100.00
34297;BME280;20564;42.902;25.336;2023-02-18T01:28:40;97795.97;;;-1.44;100.00
34297;BME280;20564;42.902;25.336;2023-02-18T01:31:10;97807.03;;;-1.40;100.00
34297;BME280;20564;42.902;25.336;2023-02-18T01:33:38;97790.91;;;-1.47;100.00
34297;BME280;20564;42.902;25.336;2023-02-18T01:36:07;97790.78;;;-1.42;100.00
34297;BME280;20564;42.902;25.336;2023-02-18T01:38:39;97797.03;;;-1.50;100.00
34297;BME280;20564;42.902;25.336;2023-02-18T01:41:07;97783.50;;;-1.56;100.00
34297;BME280;20564;42.902;25.336;2023-02-18T01:43:35;97780.91;;;-1.56;100.00
34297;BME280;20564;42.902;25.336;2023-02-18T01:46:15;97790.91;;;-1.47;100.00
34297;BME280;20564;42.902;25.336;2023-02-18T01:51:42;97787.66;;;-1.52;100.00
34297;BME280;20564;42.902;25.336;2023-02-18T01:54:26;97797.03;;;-1.50;100.00
34297;BME280;20564;42.902;25.336;2023-02-18T01:57:05;97797.97;;;-1.52;100.00
34297;BME280;20564;42.902;25.336;2023-02-18T01:59:49;97793.81;;;-1.56;100.00
34297;BME280;20564;42.902;25.336;2023-02-18T02:02:24;97790.22;;;-1.52;100.00
34297;BME280;20564;42.902;25.336;2023-02-18T02:04:56;97794.41;;;-1.48;100.00
34297;BME280;20564;42.902;25.336;2023-02-18T02:07:24;97796.41;;;-1.56;100.00
34297;BME280;20564;42.902;25.336;2023-02-18T02:09:55;97789.66;;;-1.60;100.00
34297;BME280;20564;42.902;25.336;2023-02-18T02:18:01;97793.00;;;-1.58;100.00
34297;BME280;20564;42.902;25.336;2023-02-18T02:26:50;97788.16;;;-1.67;100.00
34297;BME280;20564;42.902;25.336;2023-02-18T02:32:31;97776.75;;;-1.60;100.00
34297;BME280;20564;42.902;25.336;2023-02-18T02:35:12;97769.84;;;-1.60;100.00
34297;BME280;20564;42.902;25.336;2023-02-18T02:40:59;97767.09;;;-1.55;100.00
34297;BME280;20564;42.902;25.336;2023-02-18T02:46:27;97778.47;;;-1.61;100.00
34297;BME280;20564;42.902;25.336;2023-02-18T02:49:24;97758.69;;;-1.60;100.00
34297;BME280;20564;42.902;25.336;2023-02-18T02:52:23;97760.34;;;-1.59;100.00
34297;BME280;20564;42.902;25.336;2023-02-18T02:54:52;97756.84;;;-1.57;100.00
34297;BME280;20564;42.902;25.336;2023-02-18T02:59:52;97762.25;;;-1.64;100.00
34297;BME280;20564;42.902;25.336;2023-02-18T03:03:05;97763.03;;;-1.62;100.00
34297;BME280;20564;42.902;25.336;2023-02-18T03:05:43;97769.19;;;-1.66;100.00
34297;BME280;20564;42.902;25.336;2023-02-18T03:11:20;97779.94;;;-1.54;100.00
34297;BME280;20564;42.902;25.336;2023-02-18T03:22:12;97789.69;;;-1.62;100.00
34297;BME280;20564;42.902;25.336;2023-02-18T03:24:46;97792.22;;;-1.60;100.00
34297;BME280;20564;42.902;25.336;2023-02-18T03:27:18;97786.94;;;-1.57;100.00
34297;BME280;20564;42.902;25.336;2023-02-18T03:30:27;97782.69;;;-1.58;100.00
34297;BME280;20564;42.902;25.336;2023-02-18T03:33:03;97787.06;;;-1.60;100.00
34297;BME280;20564;42.902;25.336;2023-02-18T03:35:32;97794.00;;;-1.62;100.00
34297;BME280;20564;42.902;25.336;2023-02-18T03:38:18;97794.00;;;-1.62;100.00
34297;BME280;20564;42.902;25.336;2023-02-18T03:40:51;97795.75;;;-1.63;100.00
34297;BME280;20564;42.902;25.336;2023-02-18T03:43:18;97792.22;;;-1.60;100.00
34297;BME280;20564;42.902;25.336;2023-02-18T03:45:48;97797.16;;;-1.54;100.00
34297;BME280;20564;42.902;25.336;2023-02-18T03:48:16;97802.31;;;-1.53;100.00
34297;BME280;20564;42.902;25.336;2023-02-18T03:50:43;97799.63;;;-1.50;100.00
34297;BME280;20564;42.902;25.336;2023-02-18T03:53:14;97795.28;;;-1.49;100.00
34297;BME280;20564;42.902;25.336;2023-02-18T03:55:41;97785.97;;;-1.53;100.00
34297;BME280;20564;42.902;25.336;2023-02-18T03:58:11;97786.84;;;-1.54;100.00
34297;BME280;20564;42.902;25.336;2023-02-18T04:00:38;97779.06;;;-1.53;100.00
34297;BME280;20564;42.902;25.336;2023-02-18T04:03:05;97776.25;;;-1.47;100.00
34297;BME280;20564;42.902;25.336;2023-02-18T04:05:33;97783.06;;;-1.44;100.00
34297;BME280;20564;42.902;25.336;2023-02-18T04:08:04;97789.72;;;-1.37;100.00
34297;BME280;20564;42.902;25.336;2023-02-18T04:10:39;97784.25;;;-1.28;100.00
34297;BME280;20564;42.902;25.336;2023-02-18T04:13:06;97769.53;;;-1.26;100.00
34297;BME280;20564;42.902;25.336;2023-02-18T04:15:34;97761.66;;;-1.23;100.00
34297;BME280;20564;42.902;25.336;2023-02-18T04:18:42;97750.53;;;-1.25;100.00
34297;BME280;20564;42.902;25.336;2023-02-18T04:21:10;97740.44;;;-1.31;100.00
34297;BME280;20564;42.902;25.336;2023-02-18T04:23:38;97745.81;;;-1.37;100.00
34297;BME280;20564;42.902;25.336;2023-02-18T04:26:06;97744.06;;;-1.36;100.00
34297;BME280;20564;42.902;25.336;2023-02-18T04:28:34;97741.59;;;-1.39;100.00
34297;BME280;20564;42.902;25.336;2023-02-18T04:31:01;97739.88;;;-1.39;100.00
34297;BME280;20564;42.902;25.336;2023-02-18T04:33:29;97734.44;;;-1.31;100.00
34297;BME280;20564;42.902;25.336;2023-02-18T04:35:57;97721.47;;;-1.30;100.00
34297;BME280;20564;42.902;25.336;2023-02-18T04:38:33;97731.16;;;-1.36;100.00
34297;BME280;20564;42.902;25.336;2023-02-18T04:41:07;97727.84;;;-1.40;100.00
34297;BME280;20564;42.902;25.336;2023-02-18T04:43:39;97728.94;;;-1.47;100.00
34297;BME280;20564;42.902;25.336;2023-02-18T04:46:14;97728.81;;;-1.42;100.00
34297;BME280;20564;42.902;25.336;2023-02-18T04:48:57;97720.91;;;-1.38;100.00
34297;BME280;20564;42.902;25.336;2023-02-18T04:51:24;97729.97;;;-1.51;100.00
34297;BME280;20564;42.902;25.336;2023-02-18T04:53:52;97730.75;;;-1.49;100.00
34297;BME280;20564;42.902;25.336;2023-02-18T04:56:19;97719.69;;;-1.53;100.00
34297;BME280;20564;42.902;25.336;2023-02-18T04:58:46;97733.44;;;-1.52;100.00
34297;BME280;20564;42.902;25.336;2023-02-18T05:01:13;97723.13;;;-1.52;100.00
34297;BME280;20564;42.902;25.336;2023-02-18T05:03:39;97721.09;;;-1.44;100.00
34297;BME280;20564;42.902;25.336;2023-02-18T05:06:07;97722.78;;;-1.43;100.00
34297;BME280;20564;42.902;25.336;2023-02-18T05:08:35;97726.84;;;-1.36;100.00
34297;BME280;20564;42.902;25.336;2023-02-18T05:11:06;97723.25;;;-1.32;100.00
34297;BME280;20564;42.902;25.336;2023-02-18T05:13:34;97728.31;;;-1.29;100.00
34297;BME280;20564;42.902;25.336;2023-02-18T05:16:01;97718.69;;;-1.24;100.00
34297;BME280;20564;42.902;25.336;2023-02-18T05:18:28;97711.03;;;-1.27;100.00
34297;BME280;20564;42.902;25.336;2023-02-18T05:20:55;97727.09;;;-1.18;100.00
34297;BME280;20564;42.902;25.336;2023-02-18T05:23:22;97720.19;;;-1.18;100.00
34297;BME280;20564;42.902;25.336;2023-02-18T05:25:50;97720.34;;;-1.23;100.00
34297;BME280;20564;42.902;25.336;2023-02-18T05:28:17;97727.19;;;-1.22;100.00
34297;BME280;20564;42.902;25.336;2023-02-18T05:30:44;97729.56;;;-1.15;100.00
34297;BME280;20564;42.902;25.336;2023-02-18T05:33:11;97722.00;;;-1.20;100.00
34297;BME280;20564;42.902;25.336;2023-02-18T05:35:38;97725.97;;;-1.11;100.00
34297;BME280;20564;42.902;25.336;2023-02-18T05:38:05;97730.97;;;-1.07;100.00
34297;BME280;20564;42.902;25.336;2023-02-18T05:40:32;97725.75;;;-1.05;100.00
34297;BME280;20564;42.902;25.336;2023-02-18T05:42:59;97732.59;;;-1.04;100.00
34297;BME280;20564;42.902;25.336;2023-02-18T05:45:26;97728.91;;;-0.97;100.00
34297;BME280;20564;42.902;25.336;2023-02-18T05:47:53;97722.16;;;-1.01;100.00
34297;BME280;20564;42.902;25.336;2023-02-18T05:50:19;97718.88;;;-1.06;100.00
34297;BME280;20564;42.902;25.336;2023-02-18T05:52:46;97718.38;;;-0.92;100.00
34297;BME280;20564;42.902;25.336;2023-02-18T05:55:13;97716.66;;;-0.92;100.00
34297;BME280;20564;42.902;25.336;2023-02-18T05:57:40;97709.47;;;-0.84;100.00
34297;BME280;20564;42.902;25.336;2023-02-18T06:00:08;97704.97;;;-0.79;100.00
34297;BME280;20564;42.902;25.336;2023-02-18T06:02:36;97697.75;;;-0.70;100.00
34297;BME280;20564;42.902;25.336;2023-02-18T06:05:03;97700.00;;;-0.61;100.00
34297;BME280;20564;42.902;25.336;2023-02-18T06:07:31;97693.63;;;-0.53;100.00
34297;BME280;20564;42.902;25.336;2023-02-18T06:09:58;97681.94;;;-0.41;100.00
34297;BME280;20564;42.902;25.336;2023-02-18T06:23:11;97666.47;;;0.82;100.00
34297;BME280;20564;42.902;25.336;2023-02-18T06:28:31;97663.50;;;0.70;100.00
34297;BME280;20564;42.902;25.336;2023-02-18T06:30:57;97652.66;;;0.62;100.00
34297;BME280;20564;42.902;25.336;2023-02-18T06:33:25;97665.38;;;0.67;100.00
34297;BME280;20564;42.902;25.336;2023-02-18T06:36:01;97663.50;;;0.70;100.00
34297;BME280;20564;42.902;25.336;2023-02-18T06:38:46;97649.06;;;0.84;100.00
34297;BME280;20564;42.902;25.336;2023-02-18T06:41:14;97665.91;;;0.94;100.00
34297;BME280;20564;42.902;25.336;2023-02-18T06:43:41;97643.38;;;0.96;100.00
34297;BME280;20564;42.902;25.336;2023-02-18T06:46:08;97657.22;;;0.95;100.00
34297;BME280;20564;42.902;25.336;2023-02-18T06:48:35;97646.00;;;0.94;100.00
34297;BME280;20564;42.902;25.336;2023-02-18T06:51:07;97652.41;;;1.06;100.00
34297;BME280;20564;42.902;25.336;2023-02-18T06:53:34;97662.53;;;1.30;100.00
34297;BME280;20564;42.902;25.336;2023-02-18T06:56:03;97661.72;;;1.29;100.00
34297;BME280;20564;42.902;25.336;2023-02-18T06:58:30;97653.44;;;1.40;100.00
34297;BME280;20564;42.902;25.336;2023-02-18T07:00:57;97652.72;;;1.36;100.00
34297;BME280;20564;42.902;25.336;2023-02-18T07:03:26;97662.75;;;1.44;100.00
34297;BME280;20564;42.902;25.336;2023-02-18T07:05:53;97657.59;;;1.61;100.00
34297;BME280;20564;42.902;25.336;2023-02-18T07:08:21;97678.03;;;1.67;100.00
34297;BME280;20564;42.902;25.336;2023-02-18T07:10:51;97679.56;;;1.72;100.00
34297;BME280;20564;42.902;25.336;2023-02-18T07:13:21;97675.94;;;1.76;100.00
34297;BME280;20564;42.902;25.336;2023-02-18T07:15:52;97653.88;;;1.84;100.00
34297;BME280;20564;42.902;25.336;2023-02-18T07:18:19;97655.47;;;2.04;100.00
34297;BME280;20564;42.902;25.336;2023-02-18T07:20:47;97655.03;;;2.13;100.00
34297;BME280;20564;42.902;25.336;2023-02-18T07:23:14;97659.91;;;2.37;100.00
34297;BME280;20564;42.902;25.336;2023-02-18T07:25:44;97663.72;;;2.47;100.00
34297;BME280;20564;42.902;25.336;2023-02-18T07:28:11;97669.75;;;2.48;100.00
34297;BME280;20564;42.902;25.336;2023-02-18T07:30:40;97676.41;;;2.53;100.00
34297;BME280;20564;42.902;25.336;2023-02-18T07:33:07;97675.84;;;2.64;100.00
34297;BME280;20564;42.902;25.336;2023-02-18T07:35:43;97661.53;;;2.73;100.00
34297;BME280;20564;42.902;25.336;2023-02-18T07:38:11;97663.16;;;2.91;100.00
34297;BME280;20564;42.902;25.336;2023-02-18T07:40:38;97671.28;;;3.18;100.00
34297;BME280;20564;42.902;25.336;2023-02-18T07:43:08;97676.31;;;3.37;100.00
34297;BME280;20564;42.902;25.336;2023-02-18T07:45:37;97678.31;;;3.48;100.00
34297;BME280;20564;42.902;25.336;2023-02-18T07:48:09;97683.19;;;3.70;100.00
34297;BME280;20564;42.902;25.336;2023-02-18T07:50:39;97673.13;;;3.94;100.00
34297;BME280;20564;42.902;25.336;2023-02-18T07:53:16;97676.84;;;4.20;100.00
34297;BME280;20564;42.902;25.336;2023-02-18T07:55:43;97669.38;;;4.44;99.21
34297;BME280;20564;42.902;25.336;2023-02-18T07:58:29;97667.28;;;4.65;96.15
34297;BME280;20564;42.902;25.336;2023-02-18T08:01:06;97667.19;;;4.80;95.01
34297;BME280;20564;42.902;25.336;2023-02-18T08:03:37;97666.91;;;4.99;93.89
34297;BME280;20564;42.902;25.336;2023-02-18T08:06:20;97662.94;;;5.35;93.07
34297;BME280;20564;42.902;25.336;2023-02-18T08:08:49;97654.69;;;5.55;91.19
34297;BME280;20564;42.902;25.336;2023-02-18T08:11:22;97649.97;;;5.75;89.80
34297;BME280;20564;42.902;25.336;2023-02-18T08:13:49;97647.28;;;6.03;89.15
34297;BME280;20564;42.902;25.336;2023-02-18T08:16:19;97654.22;;;6.30;87.53
34297;BME280;20564;42.902;25.336;2023-02-18T08:18:58;97651.63;;;6.56;85.75
34297;BME280;20564;42.902;25.336;2023-02-18T08:21:29;97655.41;;;6.77;83.89
34297;BME280;20564;42.902;25.336;2023-02-18T08:23:58;97648.91;;;6.95;84.29
34297;BME280;20564;42.902;25.336;2023-02-18T08:26:40;97637.59;;;7.08;82.62
34297;BME280;20564;42.902;25.336;2023-02-18T08:29:25;97625.41;;;7.19;81.13
34297;BME280;20564;42.902;25.336;2023-02-18T08:31:52;97620.38;;;7.29;81.48
34297;BME280;20564;42.902;25.336;2023-02-18T08:34:21;97626.16;;;7.45;81.49
34297;BME280;20564;42.902;25.336;2023-02-18T08:36:48;97631.03;;;7.63;81.89
34297;BME280;20564;42.902;25.336;2023-02-18T08:39:18;97633.03;;;7.59;80.83
34297;BME280;20564;42.902;25.336;2023-02-18T08:41:50;97628.41;;;7.63;78.94
34297;BME280;20564;42.902;25.336;2023-02-18T08:44:18;97622.63;;;7.70;76.82
34297;BME280;20564;42.902;25.336;2023-02-18T08:46:45;97631.19;;;7.96;77.84
34297;BME280;20564;42.902;25.336;2023-02-18T08:49:14;97620.78;;;8.19;75.27
34297;BME280;20564;42.902;25.336;2023-02-18T08:52:13;97614.09;;;8.50;73.81
34297;BME280;20564;42.902;25.336;2023-02-18T08:54:40;97598.88;;;8.89;71.36
34297;BME280;20564;42.902;25.336;2023-02-18T08:57:07;97600.66;;;9.11;71.59
34297;BME280;20564;42.902;25.336;2023-02-18T08:59:35;97592.22;;;9.51;71.58
34297;BME280;20564;42.902;25.336;2023-02-18T09:02:02;97576.56;;;9.81;66.73
34297;BME280;20564;42.902;25.336;2023-02-18T09:04:29;97580.19;;;10.22;63.74
34297;BME280;20564;42.902;25.336;2023-02-18T09:06:57;97582.38;;;10.59;56.92
34297;BME280;20564;42.902;25.336;2023-02-18T09:09:27;97584.59;;;10.84;57.91
34297;BME280;20564;42.902;25.336;2023-02-18T09:11:55;97585.94;;;11.09;54.86
34297;BME280;20564;42.902;25.336;2023-02-18T09:14:26;97588.91;;;11.35;53.91
34297;BME280;20564;42.902;25.336;2023-02-18T09:16:55;97582.88;;;11.64;51.63
34297;BME280;20564;42.902;25.336;2023-02-18T09:19:23;97585.25;;;11.87;51.33
34297;BME280;20564;42.902;25.336;2023-02-18T09:21:52;97582.34;;;12.09;50.55
34297;BME280;20564;42.902;25.336;2023-02-18T09:24:30;97583.00;;;12.30;49.44
34297;BME280;20564;42.902;25.336;2023-02-18T09:27:19;97587.69;;;12.46;48.80
34297;BME280;20564;42.902;25.336;2023-02-18T09:30:22;97580.75;;;12.55;49.25
34297;BME280;20564;42.902;25.336;2023-02-18T09:33:09;97581.59;;;12.55;48.43
34297;BME280;20564;42.902;25.336;2023-02-18T09:35:47;97572.66;;;12.66;48.27
34297;BME280;20564;42.902;25.336;2023-02-18T09:38:16;97579.41;;;12.88;48.53
34297;BME280;20564;42.902;25.336;2023-02-18T09:40:49;97574.97;;;13.16;46.79
34297;BME280;20564;42.902;25.336;2023-02-18T09:43:35;97584.66;;;13.53;48.16
34297;BME280;20564;42.902;25.336;2023-02-18T09:49:31;97562.84;;;13.87;46.30
34297;BME280;20564;42.902;25.336;2023-02-18T09:52:19;97560.84;;;13.89;45.13
34297;BME280;20564;42.902;25.336;2023-02-18T09:54:51;97576.00;;;13.79;45.12
34297;BME280;20564;42.902;25.336;2023-02-18T09:57:37;97560.03;;;13.70;44.37
34297;BME280;20564;42.902;25.336;2023-02-18T10:00:14;97569.25;;;13.84;45.26
34297;BME280;20564;42.902;25.336;2023-02-18T10:02:52;97570.31;;;14.09;45.49
34297;BME280;20564;42.902;25.336;2023-02-18T10:05:25;97571.56;;;14.41;44.53
34297;BME280;20564;42.902;25.336;2023-02-18T10:08:03;97576.38;;;14.63;44.88
34297;BME280;20564;42.902;25.336;2023-02-18T10:10:48;97579.78;;;14.82;42.97
34297;BME280;20564;42.902;25.336;2023-02-18T10:13:43;97574.19;;;14.85;43.76
34297;BME280;20564;42.902;25.336;2023-02-18T10:16:18;97572.69;;;14.90;42.93
34297;BME280;20564;42.902;25.336;2023-02-18T10:19:27;97567.94;;;15.02;42.04
34297;BME280;20564;42.902;25.336;2023-02-18T10:21:56;97566.81;;;15.05;42.17
34297;BME280;20564;42.902;25.336;2023-02-18T10:27:05;97558.84;;;15.47;42.20
34297;BME280;20564;42.902;25.336;2023-02-18T10:29:41;97566.81;;;15.47;41.69
34297;BME280;20564;42.902;25.336;2023-02-18T10:32:36;97559.81;;;15.46;42.36
34297;BME280;20564;42.902;25.336;2023-02-18T10:47:14;97545.81;;;15.19;42.14
34297;BME280;20564;42.902;25.336;2023-02-18T10:50:12;97538.53;;;15.22;42.17
34297;BME280;20564;42.902;25.336;2023-02-18T10:52:54;97531.44;;;15.30;42.56
34297;BME280;20564;42.902;25.336;2023-02-18T10:55:56;97536.13;;;15.53;42.12
34297;BME280;20564;42.902;25.336;2023-02-18T11:01:15;97525.69;;;15.43;41.65
34297;BME280;20564;42.902;25.336;2023-02-18T11:04:03;97522.97;;;15.27;42.10
34297;BME280;20564;42.902;25.336;2023-02-18T11:06:37;97508.06;;;15.26;42.65
34297;BME280;20564;42.902;25.336;2023-02-18T11:09:06;97512.66;;;15.15;42.31
34297;BME280;20564;42.902;25.336;2023-02-18T11:11:51;97521.94;;;15.11;42.38
34297;BME280;20564;42.902;25.336;2023-02-18T11:14:44;97523.75;;;15.11;42.13
34297;BME280;20564;42.902;25.336;2023-02-18T11:17:21;97524.91;;;15.08;42.20
34297;BME280;20564;42.902;25.336;2023-02-18T11:23:25;97530.88;;;15.10;42.54
34297;BME280;20564;42.902;25.336;2023-02-18T11:26:00;97517.94;;;15.07;42.28
34297;BME280;20564;42.902;25.336;2023-02-18T11:33:56;97500.41;;;15.14;44.48
34297;BME280;20564;42.902;25.336;2023-02-18T11:36:45;97505.72;;;15.14;43.34
34297;BME280;20564;42.902;25.336;2023-02-18T11:39:25;97504.84;;;15.06;43.38
34297;BME280;20564;42.902;25.336;2023-02-18T11:41:58;97505.50;;;15.08;43.26
34297;BME280;20564;42.902;25.336;2023-02-18T11:49:40;97502.50;;;15.03;42.63
34297;BME280;20564;42.902;25.336;2023-02-18T11:52:25;97502.00;;;14.99;42.48
34297;BME280;20564;42.902;25.336;2023-02-18T11:57:44;97498.00;;;14.95;41.88
34297;BME280;20564;42.902;25.336;2023-02-18T12:00:45;97505.00;;;15.04;42.56
34297;BME280;20564;42.902;25.336;2023-02-18T12:06:36;97497.69;;;15.06;42.75
34297;BME280;20564;42.902;25.336;2023-02-18T12:12:19;97499.38;;;15.07;41.75
34297;BME280;20564;42.902;25.336;2023-02-18T12:14:48;97497.25;;;15.11;42.23
34297;BME280;20564;42.902;25.336;2023-02-18T12:26:35;97499.69;;;14.96;42.35
34297;BME280;20564;42.902;25.336;2023-02-18T12:29:26;97492.69;;;14.95;41.98
34297;BME280;20564;42.902;25.336;2023-02-18T12:32:11;97502.97;;;14.90;42.33
34297;BME280;20564;42.902;25.336;2023-02-18T12:43:46;97487.38;;;14.87;42.44
34297;BME280;20564;42.902;25.336;2023-02-18T12:46:22;97481.13;;;14.96;42.00
34297;BME280;20564;42.902;25.336;2023-02-18T13:12:49;97448.44;;;15.62;41.45
34297;BME280;20564;42.902;25.336;2023-02-18T13:18:40;97444.91;;;15.46;42.16
34297;BME280;20564;42.902;25.336;2023-02-18T13:21:16;97437.31;;;15.51;41.36
34297;BME280;20564;42.902;25.336;2023-02-18T13:23:54;97453.75;;;15.71;40.95
34297;BME280;20564;42.902;25.336;2023-02-18T13:26:26;97436.50;;;15.75;41.20
34297;BME280;20564;42.902;25.336;2023-02-18T13:38:04;97411.56;;;16.17;40.37
34297;BME280;20564;42.902;25.336;2023-02-18T13:40:37;97422.50;;;16.22;39.76
34297;BME280;20564;42.902;25.336;2023-02-18T13:51:37;97430.13;;;16.25;40.59
34297;BME280;20564;42.902;25.336;2023-02-18T13:56:42;97414.28;;;15.92;40.67
34297;BME280;20564;42.902;25.336;2023-02-18T14:02:35;97412.94;;;15.55;41.18
34297;BME280;20564;42.902;25.336;2023-02-18T14:05:18;97405.97;;;15.54;41.19
34297;BME280;20564;42.902;25.336;2023-02-18T14:07:52;97405.63;;;15.57;41.14
34297;BME280;20564;42.902;25.336;2023-02-18T14:10:34;97402.66;;;15.52;41.61
34297;BME280;20564;42.902;25.336;2023-02-18T14:16:12;97413.78;;;15.39;41.81
34297;BME280;20564;42.902;25.336;2023-02-18T14:23:44;97412.78;;;15.32;41.58
34297;BME280;20564;42.902;25.336;2023-02-18T14:26:28;97415.56;;;15.23;41.84
34297;BME280;20564;42.902;25.336;2023-02-18T14:29:00;97427.16;;;15.22;41.96
34297;BME280;20564;42.902;25.336;2023-02-18T14:31:34;97426.81;;;15.08;41.87
34297;BME280;20564;42.902;25.336;2023-02-18T14:34:18;97426.13;;;15.06;42.75
34297;BME280;20564;42.902;25.336;2023-02-18T14:40:31;97438.75;;;15.12;43.53
34297;BME280;20564;42.902;25.336;2023-02-18T14:43:01;97451.34;;;15.10;42.98
34297;BME280;20564;42.902;25.336;2023-02-18T14:45:57;97452.00;;;15.04;43.77
34297;BME280;20564;42.902;25.336;2023-02-18T14:51:30;97455.53;;;14.70;44.03
34297;BME280;20564;42.902;25.336;2023-02-18T14:54:04;97450.44;;;14.51;44.66
34297;BME280;20564;42.902;25.336;2023-02-18T14:56:46;97451.53;;;14.40;44.58
34297;BME280;20564;42.902;25.336;2023-02-18T14:59:21;97461.16;;;14.15;46.67
34297;BME280;20564;42.902;25.336;2023-02-18T15:02:41;97459.09;;;14.01;47.55
34297;BME280;20564;42.902;25.336;2023-02-18T15:05:43;97462.28;;;13.87;48.66
34297;BME280;20564;42.902;25.336;2023-02-18T15:08:25;97454.97;;;13.81;49.86
34297;BME280;20564;42.902;25.336;2023-02-18T15:11:02;97466.16;;;13.74;49.92
34297;BME280;20564;42.902;25.336;2023-02-18T15:13:41;97464.38;;;13.57;51.09
34297;BME280;20564;42.902;25.336;2023-02-18T15:16:32;97465.66;;;13.53;50.65
34297;BME280;20564;42.902;25.336;2023-02-18T15:19:03;97468.75;;;13.48;50.80
34297;BME280;20564;42.902;25.336;2023-02-18T15:21:36;97467.44;;;13.52;51.86
34297;BME280;20564;42.902;25.336;2023-02-18T15:24:31;97461.03;;;13.37;51.90
34297;BME280;20564;42.902;25.336;2023-02-18T15:27:01;97470.56;;;13.48;51.98
34297;BME280;20564;42.902;25.336;2023-02-18T15:29:34;97461.28;;;13.44;52.68
34297;BME280;20564;42.902;25.336;2023-02-18T15:32:28;97459.91;;;13.40;52.51
34297;BME280;20564;42.902;25.336;2023-02-18T15:35:14;97461.56;;;13.41;52.49
34297;BME280;20564;42.902;25.336;2023-02-18T15:37:53;97461.88;;;13.38;52.42
34297;BME280;20564;42.902;25.336;2023-02-18T15:40:27;97454.69;;;13.30;52.22
34297;BME280;20564;42.902;25.336;2023-02-18T15:42:58;97459.16;;;13.30;52.00
34297;BME280;20564;42.902;25.336;2023-02-18T15:45:38;97454.75;;;13.20;51.97
34297;BME280;20564;42.902;25.336;2023-02-18T15:48:05;97461.69;;;13.21;51.78
34297;BME280;20564;42.902;25.336;2023-02-18T15:50:47;97454.34;;;13.15;52.96
34297;BME280;20564;42.902;25.336;2023-02-18T15:53:27;97457.41;;;12.93;52.08
34297;BME280;20564;42.902;25.336;2023-02-18T15:56:17;97453.16;;;12.82;53.17
34297;BME280;20564;42.902;25.336;2023-02-18T15:58:46;97464.47;;;12.74;52.90
34297;BME280;20564;42.902;25.336;2023-02-18T16:01:28;97477.59;;;12.66;53.74
34297;BME280;20564;42.902;25.336;2023-02-18T16:03:56;97476.28;;;12.43;54.13
34297;BME280;20564;42.902;25.336;2023-02-18T16:07:16;97469.97;;;12.16;55.01
34297;BME280;20564;42.902;25.336;2023-02-18T16:10:38;97473.91;;;12.02;55.90
34297;BME280;20564;42.902;25.336;2023-02-18T16:13:26;97467.81;;;11.82;55.70
34297;BME280;20564;42.902;25.336;2023-02-18T16:15:56;97482.56;;;11.85;56.14
34297;BME280;20564;42.902;25.336;2023-02-18T16:18:43;97476.97;;;11.78;56.27
34297;BME280;20564;42.902;25.336;2023-02-18T16:30:53;97488.47;;;11.09;58.05
34297;BME280;20564;42.902;25.336;2023-02-18T16:33:22;97491.50;;;11.05;57.91